Time;durP1;ratioP1;P1;durP2;ratioP2;P2;SDS_P1;SDS_P2;PMS_P1;PMS_P2;Temp;Humidity;BMP_temperature;BMP_pressure;BME280_temperature;BME280_humidity;BME280_pressure;Samples;Min_cycle;Max_cycle;Signal;HPM_P1;HPM_P2
2024/03/23 00:01:42;;;;;;;8.13;4.07;;;25.10;99.90;;;;;;5051813;28;20103;-44
2024/03/23 00:04:09;;;;;;;8.93;4.38;;;25.10;99.90;;;;;;5033738;28;20041;-43
2024/03/23 00:06:35;;;;;;;11.43;5.43;;;25.00;99.90;;;;;;5051789;28;20017;-44
2024/03/23 00:09:02;;;;;;;7.73;4.50;;;25.10;99.90;;;;;;5051832;28;20025;-43
2024/03/23 00:11:29;;;;;;;9.43;4.63;;;25.00;99.90;;;;;;5051671;28;20017;-43
2024/03/23 00:13:57;;;;;;;14.23;5.83;;;25.00;99.90;;;;;;5053989;28;20401;-43
2024/03/23 00:16:25;;;;;;;9.90;4.88;;;25.00;99.90;;;;;;5055549;28;20104;-43
2024/03/23 00:18:52;;;;;;;11.02;5.10;;;25.00;99.90;;;;;;5055579;28;20099;-44
2024/03/23 00:21:19;;;;;;;11.90;4.60;;;25.00;99.90;;;;;;5055816;28;20048;-43
2024/03/23 00:23:46;;;;;;;7.47;4.47;;;25.00;99.90;;;;;;5055561;28;20059;-43
2024/03/23 00:26:12;;;;;;;11.60;4.33;;;25.00;99.90;;;;;;5055470;28;20362;-43
2024/03/23 00:28:39;;;;;;;8.50;4.53;;;25.00;99.90;;;;;;5055489;28;20098;-43
2024/03/23 00:31:06;;;;;;;8.18;4.85;;;25.00;99.90;;;;;;5055366;28;20036;-43
2024/03/23 00:33:33;;;;;;;10.40;4.57;;;25.00;99.90;;;;;;5055336;28;20055;-43
2024/03/23 00:36:01;;;;;;;10.30;4.63;;;25.00;99.90;;;;;;5037394;28;20411;-43
2024/03/23 00:38:27;;;;;;;7.68;4.65;;;25.00;99.90;;;;;;5055102;28;20033;-43
2024/03/23 00:40:54;;;;;;;10.40;4.33;;;25.00;99.90;;;;;;5055174;28;20481;-43
2024/03/23 00:43:22;;;;;;;11.52;5.00;;;25.00;99.90;;;;;;5055150;28;20029;-43
2024/03/23 00:45:49;;;;;;;8.23;4.45;;;25.00;99.90;;;;;;5055181;28;20029;-43
2024/03/23 00:48:16;;;;;;;8.27;4.17;;;25.00;99.90;;;;;;5055073;28;20079;-42
2024/03/23 00:50:42;;;;;;;12.93;5.10;;;25.00;99.90;;;;;;5054967;28;20051;-43
2024/03/23 00:53:09;;;;;;;9.98;4.43;;;25.00;99.90;;;;;;5054851;28;20083;-44
2024/03/23 00:55:35;;;;;;;10.90;4.80;;;25.00;99.90;;;;;;5054961;28;20017;-43
2024/03/23 00:58:01;;;;;;;8.85;5.10;;;25.00;99.90;;;;;;5054588;28;20392;-43
2024/03/23 01:00:27;;;;;;;9.45;4.50;;;25.00;99.90;;;;;;5055234;28;20061;-43
2024/03/23 01:02:53;;;;;;;9.05;4.32;;;24.90;99.90;;;;;;5054510;28;20053;-43
2024/03/23 01:05:18;;;;;;;14.93;4.47;;;24.90;99.90;;;;;;5054623;28;20100;-43
2024/03/23 01:07:44;;;;;;;7.70;4.40;;;24.90;99.90;;;;;;5054442;28;20024;-43
2024/03/23 01:10:10;;;;;;;12.27;4.70;;;24.90;99.90;;;;;;5054691;28;20087;-43
2024/03/23 01:12:36;;;;;;;12.02;4.65;;;24.90;99.90;;;;;;5054373;28;20032;-43
2024/03/23 01:15:02;;;;;;;10.38;4.85;;;24.90;99.90;;;;;;5054327;28;20029;-44
2024/03/23 01:17:28;;;;;;;7.93;4.30;;;24.90;99.90;;;;;;5054335;28;20032;-43
2024/03/23 01:19:54;;;;;;;7.55;4.00;;;24.90;99.90;;;;;;5054540;28;20021;-43
2024/03/23 01:22:19;;;;;;;12.15;4.18;;;24.90;99.90;;;;;;5054520;28;20025;-43
2024/03/23 01:24:45;;;;;;;7.68;4.75;;;24.90;99.90;;;;;;5053141;28;20080;-43
2024/03/23 01:27:11;;;;;;;7.95;4.55;;;24.90;99.90;;;;;;5054238;28;20017;-43
2024/03/23 01:29:37;;;;;;;9.88;5.00;;;24.90;99.90;;;;;;5054175;28;20104;-43
2024/03/23 01:32:03;;;;;;;9.38;4.47;;;24.90;99.90;;;;;;5054290;28;20020;-44
2024/03/23 01:34:29;;;;;;;10.23;4.18;;;24.90;99.90;;;;;;5054169;28;20021;-44
2024/03/23 01:36:54;;;;;;;7.63;3.90;;;24.90;99.90;;;;;;5053924;28;20036;-44
2024/03/23 01:39:20;;;;;;;8.43;4.00;;;24.80;99.90;;;;;;5036129;28;20489;-45
2024/03/23 01:41:46;;;;;;;8.98;4.40;;;24.80;99.90;;;;;;5054019;28;20045;-44
2024/03/23 01:44:12;;;;;;;7.13;4.22;;;24.80;99.90;;;;;;5036107;28;20025;-44
2024/03/23 01:46:38;;;;;;;10.93;3.85;;;24.80;99.90;;;;;;5036278;28;20040;-43
2024/03/23 01:49:08;;;;;;;8.93;4.30;;;24.80;99.90;;;;;;5054236;28;20029;-44
2024/03/23 01:51:34;;;;;;;7.55;4.03;;;24.80;99.90;;;;;;5054152;28;20024;-44
2024/03/23 01:54:03;;;;;;;8.55;4.65;;;24.80;99.90;;;;;;5053845;28;20052;-43
2024/03/23 01:56:35;;;;;;;6.75;4.22;;;24.80;99.90;;;;;;5053674;28;20025;-42
2024/03/23 01:59:02;;;;;;;8.93;4.65;;;24.80;99.90;;;;;;5053480;28;20424;-43
2024/03/23 02:01:28;;;;;;;10.93;3.92;;;24.80;99.90;;;;;;5054047;28;20508;-43
2024/03/23 02:03:53;;;;;;;10.30;4.70;;;24.80;99.90;;;;;;5053589;28;20031;-43
2024/03/23 02:06:19;;;;;;;10.82;4.82;;;24.80;99.90;;;;;;5053615;28;20017;-42
2024/03/23 02:08:45;;;;;;;7.20;3.67;;;24.70;99.90;;;;;;5035636;28;20078;-43
2024/03/23 02:11:11;;;;;;;7.75;4.32;;;24.80;99.90;;;;;;5053340;28;20052;-43
2024/03/23 02:13:37;;;;;;;13.00;4.53;;;24.70;99.90;;;;;;5053532;28;20087;-43
2024/03/23 02:16:03;;;;;;;7.80;4.10;;;24.70;99.90;;;;;;5035458;28;20050;-43
2024/03/23 02:18:28;;;;;;;8.95;4.55;;;24.70;99.90;;;;;;5035321;28;20041;-44
2024/03/23 02:20:54;;;;;;;8.40;4.13;;;24.70;99.90;;;;;;5053328;28;20112;-43
2024/03/23 02:23:20;;;;;;;8.45;4.40;;;24.70;99.90;;;;;;5035407;28;20033;-43
2024/03/23 02:25:46;;;;;;;8.20;4.15;;;24.70;99.90;;;;;;5053360;28;20021;-43
2024/03/23 02:28:12;;;;;;;7.20;4.18;;;24.70;99.90;;;;;;5053142;28;20036;-43
2024/03/23 02:30:38;;;;;;;10.02;4.85;;;24.70;99.90;;;;;;5053440;28;20091;-43
2024/03/23 02:33:04;;;;;;;8.93;4.30;;;24.70;99.90;;;;;;5052867;28;20027;-43
2024/03/23 02:35:30;;;;;;;9.15;4.10;;;24.70;99.90;;;;;;5052699;28;20029;-44
2024/03/23 02:37:57;;;;;;;5.97;3.58;;;24.70;99.90;;;;;;5052867;28;20083;-43
2024/03/23 02:40:24;;;;;;;8.52;4.60;;;24.70;99.90;;;;;;5052893;28;20044;-44
2024/03/23 02:42:49;;;;;;;10.40;4.68;;;24.70;99.90;;;;;;5052937;28;20021;-44
2024/03/23 02:45:15;;;;;;;7.53;3.70;;;24.70;99.90;;;;;;5052663;28;20104;-44
2024/03/23 02:47:41;;;;;;;9.57;4.20;;;24.70;99.90;;;;;;5052735;28;20025;-44
2024/03/23 02:50:08;;;;;;;7.55;4.53;;;24.70;99.90;;;;;;5053063;28;20489;-44
2024/03/23 02:52:34;;;;;;;7.68;4.15;;;24.60;99.90;;;;;;5052890;28;20473;-44
2024/03/23 02:55:01;;;;;;;7.22;4.10;;;24.60;99.90;;;;;;5052726;28;20029;-43
2024/03/23 02:57:27;;;;;;;9.50;4.65;;;24.60;99.90;;;;;;5052655;28;20032;-43
2024/03/23 02:59:54;;;;;;;8.20;4.68;;;24.60;99.90;;;;;;5052598;28;20021;-44
2024/03/23 03:02:21;;;;;;;9.52;4.15;;;24.60;99.90;;;;;;5052766;28;20404;-43
2024/03/23 03:04:47;;;;;;;8.15;4.05;;;24.60;99.90;;;;;;5052450;28;20032;-43
2024/03/23 03:07:12;;;;;;;8.90;4.25;;;24.60;99.90;;;;;;5052562;28;20036;-43
2024/03/23 03:09:39;;;;;;;9.05;4.80;;;24.60;99.90;;;;;;5052565;28;20013;-43
2024/03/23 03:12:07;;;;;;;8.77;3.78;;;24.60;99.90;;;;;;5018055;28;20021;-43
2024/03/23 03:14:34;;;;;;;11.55;5.03;;;24.50;99.90;;;;;;5052158;28;20027;-43
2024/03/23 03:17:00;;;;;;;11.07;3.85;;;24.50;99.90;;;;;;5034370;28;20171;-43
2024/03/23 03:19:26;;;;;;;8.57;4.35;;;24.50;99.90;;;;;;5052492;28;20025;-43
2024/03/23 03:21:52;;;;;;;10.70;3.95;;;24.50;99.90;;;;;;5051972;28;20049;-42
2024/03/23 03:24:18;;;;;;;10.35;4.63;;;24.50;99.90;;;;;;5034536;28;20107;-43
2024/03/23 03:26:45;;;;;;;11.80;4.10;;;24.50;99.90;;;;;;5051987;28;20025;-43
2024/03/23 03:29:11;;;;;;;9.40;4.13;;;24.50;99.90;;;;;;5052460;28;20603;-43
2024/03/23 03:31:38;;;;;;;8.68;3.97;;;24.50;99.90;;;;;;5052071;28;20097;-43
2024/03/23 03:34:04;;;;;;;10.68;4.10;;;24.50;99.90;;;;;;5034067;28;20021;-43
2024/03/23 03:36:30;;;;;;;13.13;4.72;;;24.50;99.90;;;;;;5052108;28;20376;-43
2024/03/23 03:38:55;;;;;;;12.45;4.35;;;24.50;99.90;;;;;;5052012;28;20036;-43
2024/03/23 03:41:21;;;;;;;11.85;4.47;;;24.50;99.90;;;;;;5052042;28;20036;-43
2024/03/23 03:43:47;;;;;;;12.95;4.28;;;24.40;99.90;;;;;;5052041;28;20432;-43
2024/03/23 03:46:13;;;;;;;10.10;4.65;;;24.40;99.90;;;;;;5052200;28;20032;-43
2024/03/23 03:48:39;;;;;;;9.57;4.65;;;24.40;99.90;;;;;;5036140;28;20523;-43
2024/03/23 03:51:04;;;;;;;8.88;3.95;;;24.40;99.90;;;;;;5056056;28;20121;-43
2024/03/23 03:53:30;;;;;;;12.50;4.45;;;24.40;99.90;;;;;;5056027;28;20033;-43
2024/03/23 03:56:00;;;;;;;7.22;3.65;;;24.40;99.90;;;;;;5056079;28;20021;-43
2024/03/23 03:58:26;;;;;;;11.80;3.90;;;24.40;99.90;;;;;;5055934;28;20033;-43
2024/03/23 04:00:52;;;;;;;11.32;4.53;;;24.40;99.90;;;;;;5056439;28;20025;-44
2024/03/23 04:03:17;;;;;;;13.00;4.50;;;24.40;99.90;;;;;;5055777;28;20020;-44
2024/03/23 04:05:49;;;;;;;9.30;4.10;;;24.40;99.90;;;;;;5056085;28;20067;-43
2024/03/23 04:08:15;;;;;;;12.85;4.70;;;24.30;99.90;;;;;;5055815;28;20021;-43
2024/03/23 04:10:41;;;;;;;10.43;3.90;;;24.30;99.90;;;;;;5055955;28;20029;-43
2024/03/23 04:13:06;;;;;;;7.72;3.80;;;24.30;99.90;;;;;;5055609;28;20052;-43
2024/03/23 04:15:32;;;;;;;9.40;4.15;;;24.30;99.90;;;;;;5055613;28;20025;-43
2024/03/23 04:17:58;;;;;;;8.52;3.72;;;24.30;99.90;;;;;;5055546;28;20044;-43
2024/03/23 04:20:24;;;;;;;11.50;4.20;;;24.30;99.90;;;;;;5055462;28;20100;-43
2024/03/23 04:22:49;;;;;;;15.00;4.63;;;24.30;99.90;;;;;;5055457;28;20025;-43
2024/03/23 04:25:15;;;;;;;13.55;4.97;;;24.30;99.90;;;;;;5055601;28;20520;-43
2024/03/23 04:27:42;;;;;;;8.60;3.90;;;24.30;99.90;;;;;;5055481;28;20025;-42
2024/03/23 04:30:11;;;;;;;10.75;3.42;;;24.30;99.90;;;;;;5055541;28;20435;-43
2024/03/23 04:32:40;;;;;;;10.18;4.07;;;24.20;99.90;;;;;;5055353;28;20021;-42
2024/03/23 04:35:06;;;;;;;15.35;4.70;;;24.20;99.90;;;;;;5055186;28;20385;-47
2024/03/23 04:37:33;;;;;;;9.30;4.03;;;24.20;99.90;;;;;;5054989;28;20036;-43
2024/03/23 04:40:01;;;;;;;8.57;3.53;;;24.20;99.90;;;;;;5037573;28;20043;-43
2024/03/23 04:42:27;;;;;;;;;;;24.20;99.90;;;;;;5055598;28;20025;-43
2024/03/23 04:44:53;;;;;;;12.65;4.22;;;24.20;99.90;;;;;;5055174;28;20274;-44
2024/03/23 04:47:19;;;;;;;11.90;4.65;;;24.20;99.90;;;;;;5037218;28;20029;-43
2024/03/23 04:49:44;;;;;;;10.98;4.43;;;24.20;99.90;;;;;;5055289;28;20029;-43
2024/03/23 04:52:10;;;;;;;8.48;3.60;;;24.20;99.90;;;;;;5054986;28;20055;-43
2024/03/23 04:54:36;;;;;;;9.77;4.03;;;24.20;99.90;;;;;;5054927;28;20033;-42
2024/03/23 04:57:02;;;;;;;11.00;3.85;;;24.20;99.90;;;;;;5054785;28;20029;-43
2024/03/23 04:59:28;;;;;;;9.93;4.38;;;24.20;99.90;;;;;;5054853;28;20505;-43
2024/03/23 05:01:53;;;;;;;7.97;3.28;;;24.20;99.90;;;;;;5037434;28;20053;-42
2024/03/23 05:04:19;;;;;;;12.98;4.30;;;24.20;99.90;;;;;;5054835;28;20025;-43
2024/03/23 05:06:45;;;;;;;12.93;4.78;;;24.20;99.90;;;;;;5055026;28;20017;-42
2024/03/23 05:09:11;;;;;;;13.43;4.40;;;24.10;99.90;;;;;;5054524;28;20473;-42
2024/03/23 05:11:41;;;;;;;10.90;4.28;;;24.10;99.90;;;;;;5054507;28;20380;-42
2024/03/23 05:14:07;;;;;;;8.18;3.72;;;24.10;99.90;;;;;;5054788;28;20021;-42
2024/03/23 05:16:33;;;;;;;11.05;4.07;;;24.10;99.90;;;;;;5054604;28;20535;-42
2024/03/23 05:19:00;;;;;;;9.88;4.38;;;24.10;99.90;;;;;;5054437;28;20055;-43
2024/03/23 05:21:28;;;;;;;9.03;3.33;;;24.10;99.90;;;;;;5054448;28;20025;-43
2024/03/23 05:23:54;;;;;;;;;;;24.10;99.90;;;;;;5054776;28;20388;-43
2024/03/23 05:26:20;;;;;;;10.90;3.78;;;24.10;99.90;;;;;;5054200;28;19941;-43
2024/03/23 05:28:45;;;;;;;8.30;3.50;;;24.10;99.90;;;;;;5054673;28;20035;-44
2024/03/23 05:31:11;;;;;;;8.82;3.83;;;24.10;99.90;;;;;;5054302;28;20431;-43
2024/03/23 05:33:40;;;;;;;8.77;4.00;;;24.10;99.90;;;;;;5054235;28;20029;-45
2024/03/23 05:36:11;;;;;;;10.45;4.57;;;24.10;99.90;;;;;;5054147;28;20029;-44
2024/03/23 05:38:36;;;;;;;11.13;3.92;;;24.10;99.90;;;;;;5053950;28;20032;-43
2024/03/23 05:41:02;;;;;;;10.25;3.30;;;24.10;99.90;;;;;;5054040;28;20021;-43
2024/03/23 05:43:28;;;;;;;12.00;3.90;;;24.10;99.90;;;;;;5054069;28;20060;-43
2024/03/23 05:45:59;;;;;;;13.93;4.53;;;24.10;99.90;;;;;;5036148;28;20404;-44
2024/03/23 05:48:28;;;;;;;13.10;4.20;;;24.10;99.90;;;;;;5053913;28;20377;-43
2024/03/23 05:50:54;;;;;;;14.57;4.35;;;24.10;99.90;;;;;;5053789;28;20381;-43
2024/03/23 05:53:23;;;;;;;12.27;3.75;;;24.00;99.90;;;;;;5053919;28;20029;-43
2024/03/23 05:55:50;;;;;;;10.88;4.78;;;24.10;99.90;;;;;;5054005;28;20029;-42
2024/03/23 05:58:18;;;;;;;14.75;4.93;;;24.10;99.90;;;;;;5054012;28;20033;-43
2024/03/23 06:00:44;;;;;;;9.65;3.70;;;24.10;99.90;;;;;;5051842;28;20394;-43
2024/03/23 06:03:10;;;;;;;10.77;3.85;;;24.10;99.90;;;;;;5049247;28;20443;-44
2024/03/23 06:05:39;;;;;;;13.80;3.78;;;24.10;99.90;;;;;;5051855;28;20021;-44
2024/03/23 06:08:06;;;;;;;10.65;4.18;;;24.10;99.90;;;;;;5050271;28;20036;-44
2024/03/23 06:10:32;;;;;;;11.20;4.27;;;24.10;99.90;;;;;;5034379;28;20017;-44
2024/03/23 06:12:59;;;;;;;9.40;4.47;;;24.10;99.90;;;;;;5053677;28;20432;-44
2024/03/23 06:15:25;;;;;;;10.13;3.80;;;24.00;99.90;;;;;;5053505;28;20013;-44
2024/03/23 06:17:50;;;;;;;9.07;4.43;;;24.10;99.90;;;;;;5053425;28;20087;-44
2024/03/23 06:20:16;;;;;;;14.85;4.35;;;24.10;99.90;;;;;;5035466;28;20021;-44
2024/03/23 06:22:42;;;;;;;12.20;4.47;;;24.00;99.90;;;;;;5053229;28;20078;-44
2024/03/23 06:25:08;;;;;;;8.93;3.85;;;24.10;99.90;;;;;;5053090;28;20017;-44
2024/03/23 06:27:34;;;;;;;11.70;4.03;;;24.10;99.90;;;;;;5053121;28;20024;-43
2024/03/23 06:30:00;;;;;;;9.85;3.45;;;24.00;99.90;;;;;;5053087;28;20524;-43
2024/03/23 06:32:28;;;;;;;9.20;4.25;;;24.10;99.90;;;;;;5053129;28;20094;-43
2024/03/23 06:34:55;;;;;;;11.18;4.63;;;24.00;99.90;;;;;;5053037;28;20407;-43
2024/03/23 06:37:20;;;;;;;10.85;3.95;;;24.10;99.90;;;;;;5053183;28;20400;-43
2024/03/23 06:39:47;;;;;;;9.20;4.00;;;24.10;99.90;;;;;;5052869;28;20092;-43
2024/03/23 06:42:12;;;;;;;9.10;3.88;;;24.00;99.90;;;;;;5052767;28;20476;-43
2024/03/23 06:44:39;;;;;;;12.38;4.72;;;24.00;99.90;;;;;;5052756;28;20036;-43
2024/03/23 06:47:06;;;;;;;13.63;4.57;;;24.00;99.90;;;;;;5052651;28;20017;-43
2024/03/23 06:49:31;;;;;;;10.32;4.15;;;24.10;99.90;;;;;;5052601;28;20730;-44
2024/03/23 06:51:57;;;;;;;8.93;3.60;;;24.00;99.90;;;;;;5034984;28;20033;-43
2024/03/23 06:54:24;;;;;;;11.10;4.45;;;24.00;99.90;;;;;;5052902;28;20512;-43
2024/03/23 06:56:50;;;;;;;8.80;3.78;;;24.00;99.90;;;;;;5052731;28;20152;-43
2024/03/23 06:59:16;;;;;;;12.13;3.75;;;24.10;99.90;;;;;;5052641;28;20112;-44
2024/03/23 07:01:42;;;;;;;12.35;3.50;;;24.00;99.90;;;;;;5052189;28;20055;-43
2024/03/23 07:04:08;;;;;;;13.95;4.43;;;24.00;99.90;;;;;;5052308;28;20029;-43
2024/03/23 07:06:33;;;;;;;8.63;4.25;;;24.00;99.90;;;;;;5034655;28;20017;-43
2024/03/23 07:08:59;;;;;;;8.35;3.25;;;24.00;99.90;;;;;;5052393;28;20024;-43
2024/03/23 07:11:25;;;;;;;14.85;4.10;;;24.00;99.90;;;;;;5052208;28;20398;-43
2024/03/23 07:13:54;;;;;;;11.68;3.80;;;24.00;99.90;;;;;;5052550;28;20052;-44
2024/03/23 07:16:20;;;;;;;13.50;3.88;;;24.00;99.90;;;;;;5052483;28;20033;-43
2024/03/23 07:18:47;;;;;;;8.77;4.00;;;24.00;99.90;;;;;;5052091;28;20119;-43
2024/03/23 07:21:13;;;;;;;10.70;4.35;;;24.00;99.90;;;;;;5052247;28;20021;-43
2024/03/23 07:23:44;;;;;;;10.18;4.10;;;24.00;99.90;;;;;;5051407;28;20021;-43
2024/03/23 07:26:11;;;;;;;11.23;4.07;;;24.00;99.90;;;;;;5052120;28;20435;-43
2024/03/23 07:28:37;;;;;;;11.52;4.00;;;24.00;99.90;;;;;;5052165;28;20025;-43
2024/03/23 07:31:03;;;;;;;12.80;4.50;;;24.00;99.90;;;;;;5052051;28;20102;-43
2024/03/23 07:33:29;;;;;;;10.95;3.80;;;24.00;99.90;;;;;;5052303;28;20438;-43
2024/03/23 07:35:55;;;;;;;15.63;4.22;;;24.00;99.90;;;;;;5052298;28;20103;-43
2024/03/23 07:38:21;;;;;;;9.00;4.53;;;24.00;99.90;;;;;;5052042;28;20039;-43
2024/03/23 07:40:48;;;;;;;10.10;4.38;;;24.00;99.90;;;;;;5051951;28;20064;-43
2024/03/23 07:43:13;;;;;;;12.27;3.40;;;24.00;99.90;;;;;;5052006;28;20548;-43
2024/03/23 07:45:40;;;;;;;12.82;4.63;;;24.00;99.90;;;;;;5051854;28;20270;-43
2024/03/23 07:48:06;;;;;;;14.70;3.95;;;24.00;99.90;;;;;;5051787;28;20484;-43
2024/03/23 07:50:32;;;;;;;11.65;3.95;;;24.00;99.90;;;;;;5051763;28;20480;-42
2024/03/23 07:52:58;;;;;;;13.50;4.10;;;24.00;99.90;;;;;;5051747;28;20049;-43
2024/03/23 07:55:23;;;;;;;14.35;5.30;;;24.00;99.90;;;;;;5051873;28;20025;-43
2024/03/23 07:57:51;;;;;;;12.20;4.30;;;24.00;99.90;;;;;;5051623;28;20037;-43
2024/03/23 08:00:17;;;;;;;9.07;3.83;;;24.00;99.90;;;;;;5051722;28;20040;-43
2024/03/23 08:02:43;;;;;;;9.95;4.43;;;24.00;99.90;;;;;;5051402;28;20048;-43
2024/03/23 08:05:09;;;;;;;10.73;4.25;;;24.00;99.90;;;;;;5051612;28;20025;-43
2024/03/23 08:07:35;;;;;;;13.23;4.55;;;24.00;99.90;;;;;;5051682;28;20108;-43
2024/03/23 08:10:03;;;;;;;13.70;4.35;;;24.00;99.90;;;;;;5051628;28;20028;-43
2024/03/23 08:12:29;;;;;;;11.50;4.10;;;24.00;99.90;;;;;;5051639;28;20021;-43
2024/03/23 08:14:55;;;;;;;8.60;4.40;;;24.00;99.90;;;;;;5051870;28;20381;-43
2024/03/23 08:17:21;;;;;;;11.50;4.07;;;24.00;99.90;;;;;;5051636;28;20025;-42
2024/03/23 08:19:47;;;;;;;13.30;4.50;;;24.00;99.90;;;;;;5051450;28;20508;-42
2024/03/23 08:22:13;;;;;;;11.82;4.40;;;24.00;99.90;;;;;;5051587;28;20104;-43
2024/03/23 08:24:39;;;;;;;18.15;5.63;;;24.00;99.90;;;;;;5033966;28;20075;-43
2024/03/23 08:27:05;;;;;;;15.07;7.43;;;24.00;99.90;;;;;;5051611;28;20029;-43
2024/03/23 08:29:31;;;;;;;10.52;4.57;;;24.00;99.90;;;;;;5051524;28;20021;-42
2024/03/23 08:31:57;;;;;;;12.32;5.07;;;24.00;99.90;;;;;;5051874;28;20048;-43
2024/03/23 08:34:23;;;;;;;17.10;6.18;;;24.00;99.90;;;;;;5052849;28;20158;-43
2024/03/23 08:36:49;;;;;;;22.35;10.18;;;24.00;99.90;;;;;;5055422;28;20025;-43
2024/03/23 08:39:15;;;;;;;11.32;5.95;;;24.00;99.90;;;;;;5055155;28;20535;-43
2024/03/23 08:41:45;;;;;;;16.75;6.65;;;24.00;99.90;;;;;;5055053;28;20033;-44
2024/03/23 08:44:10;;;;;;;15.40;8.63;;;24.00;99.90;;;;;;5038147;28;20083;-43
2024/03/23 08:46:36;;;;;;;21.70;9.45;;;24.00;99.90;;;;;;5055011;28;20017;-43
2024/03/23 08:49:02;;;;;;;14.52;8.70;;;24.10;99.90;;;;;;5037374;28;20096;-44
2024/03/23 08:51:28;;;;;;;21.65;9.63;;;24.00;99.90;;;;;;5055144;28;20111;-43
2024/03/23 08:53:54;;;;;;;16.85;9.10;;;24.00;99.90;;;;;;5054952;28;20043;-44
2024/03/23 08:56:19;;;;;;;22.45;10.77;;;24.00;99.90;;;;;;5054831;28;20385;-43
2024/03/23 08:58:45;;;;;;;18.58;9.70;;;24.00;99.90;;;;;;5054631;28;20120;-43
2024/03/23 09:01:15;;;;;;;22.08;10.65;;;24.10;99.90;;;;;;5054686;28;20132;-43
2024/03/23 09:03:41;;;;;;;21.13;11.85;;;24.00;99.90;;;;;;5054735;28;20025;-43
2024/03/23 09:06:08;;;;;;;22.13;10.23;;;24.00;99.90;;;;;;5054654;28;20389;-44
2024/03/23 09:08:36;;;;;;;22.38;12.55;;;24.00;99.90;;;;;;5054629;28;20040;-43
2024/03/23 09:11:08;;;;;;;24.73;12.75;;;24.00;99.90;;;;;;5054548;28;20028;-44
2024/03/23 09:13:38;;;;;;;22.50;12.27;;;24.00;99.90;;;;;;5036852;28;20064;-44
2024/03/23 09:16:06;;;;;;;23.23;12.45;;;24.00;99.90;;;;;;5054953;28;20127;-44
2024/03/23 09:18:33;;;;;;;26.98;12.88;;;24.00;99.90;;;;;;5054773;28;20040;-43
2024/03/23 09:20:59;;;;;;;24.65;13.20;;;24.10;99.90;;;;;;5036715;28;20111;-43
2024/03/23 09:23:25;;;;;;;22.08;13.00;;;24.10;99.90;;;;;;5054338;28;20104;-43
2024/03/23 09:25:51;;;;;;;27.35;15.00;;;24.10;99.90;;;;;;5054203;28;20432;-43
2024/03/23 09:28:16;;;;;;;22.40;13.38;;;24.10;99.90;;;;;;5054311;28;20029;-44
2024/03/23 09:30:42;;;;;;;27.50;15.13;;;24.10;99.90;;;;;;5054077;28;20021;-43
2024/03/23 09:33:09;;;;;;;25.88;14.70;;;24.10;99.90;;;;;;5054301;28;20071;-43
2024/03/23 09:35:39;;;;;;;30.70;15.45;;;24.10;99.90;;;;;;5054120;28;20430;-43
2024/03/23 09:38:05;;;;;;;28.95;14.93;;;24.10;99.90;;;;;;5053954;28;20036;-44
2024/03/23 09:40:31;;;;;;;28.35;15.20;;;24.10;99.90;;;;;;5054246;28;20025;-43
2024/03/23 09:42:57;;;;;;;25.73;14.13;;;24.10;99.90;;;;;;5054062;28;20167;-44
2024/03/23 09:45:28;;;;;;;30.85;14.80;;;24.10;99.90;;;;;;5053195;28;20497;-43
2024/03/23 09:47:55;;;;;;;27.83;15.02;;;24.10;99.90;;;;;;5053799;28;20039;-44
2024/03/23 09:50:21;;;;;;;28.48;13.93;;;24.10;99.90;;;;;;5053773;28;20032;-43
2024/03/23 09:52:48;;;;;;;30.30;14.02;;;24.20;99.90;;;;;;5053731;28;20382;-43
2024/03/23 09:55:14;;;;;;;28.33;14.98;;;24.20;99.90;;;;;;5035831;28;20040;-43
2024/03/23 09:57:40;;;;;;;28.60;13.77;;;24.20;99.90;;;;;;5053528;28;20029;-44
2024/03/23 10:00:07;;;;;;;26.93;14.43;;;24.20;99.90;;;;;;5053672;28;20103;-44
2024/03/23 10:02:34;;;;;;;33.60;16.13;;;24.20;99.90;;;;;;5053727;28;20266;-44
2024/03/23 10:05:00;;;;;;;28.60;16.20;;;24.20;99.90;;;;;;5053600;28;20060;-43
2024/03/23 10:07:29;;;;;;;28.67;15.10;;;24.20;99.90;;;;;;5053520;28;20029;-43
2024/03/23 10:09:55;;;;;;;27.15;15.20;;;24.20;99.90;;;;;;5036139;28;20056;-43
2024/03/23 10:12:23;;;;;;;28.25;15.90;;;24.20;99.90;;;;;;5053403;28;20025;-43
2024/03/23 10:14:49;;;;;;;24.85;14.18;;;24.20;99.90;;;;;;5053337;28;20017;-43
2024/03/23 10:17:19;;;;;;;25.73;14.85;;;24.20;99.90;;;;;;5053178;28;20032;-43
2024/03/23 10:19:46;;;;;;;26.90;14.38;;;24.20;99.90;;;;;;5053210;28;20025;-43
2024/03/23 10:22:19;;;;;;;26.23;15.95;;;24.30;99.90;;;;;;5053283;28;20518;-43
2024/03/23 10:24:45;;;;;;;23.95;13.10;;;24.30;99.90;;;;;;5035244;28;20062;-44
2024/03/23 10:27:19;;;;;;;26.38;14.57;;;24.30;99.90;;;;;;5053147;28;20083;-43
2024/03/23 10:29:48;;;;;;;23.00;14.05;;;24.30;99.90;;;;;;5035169;28;20029;-44
2024/03/23 10:32:16;;;;;;;26.58;14.48;;;24.30;99.90;;;;;;5035121;28;20519;-44
2024/03/23 10:34:42;;;;;;;25.83;13.20;;;24.30;99.90;;;;;;5052960;28;20021;-43
2024/03/23 10:37:08;;;;;;;25.05;14.32;;;24.40;99.90;;;;;;5052986;28;20017;-43
2024/03/23 10:39:36;;;;;;;29.80;14.23;;;24.40;99.90;;;;;;5053225;28;20049;-42
2024/03/23 10:42:04;;;;;;;23.75;13.60;;;24.40;99.90;;;;;;5053015;28;20027;-43
2024/03/23 10:44:31;;;;;;;19.25;12.27;;;24.40;99.90;;;;;;5052894;28;20025;-43
2024/03/23 10:47:01;;;;;;;26.90;13.65;;;24.50;99.90;;;;;;5052579;28;20091;-42
2024/03/23 10:49:32;;;;;;;23.90;12.65;;;24.50;99.90;;;;;;5034961;28;20025;-44
2024/03/23 10:52:03;;;;;;;23.23;12.82;;;24.50;99.90;;;;;;5034702;28;20068;-43
2024/03/23 10:54:31;;;;;;;23.50;12.77;;;24.50;99.90;;;;;;5052686;28;20025;-43
2024/03/23 10:57:14;;;;;;;22.27;12.55;;;24.50;99.90;;;;;;5052393;28;20032;-43
2024/03/23 10:59:40;;;;;;;21.25;12.35;;;24.50;99.90;;;;;;5052565;28;20040;-43
2024/03/23 11:02:09;;;;;;;25.98;13.15;;;24.50;99.90;;;;;;5052508;28;20559;-44
2024/03/23 11:04:40;;;;;;;20.88;11.55;;;24.50;99.90;;;;;;5035257;28;20060;-44
2024/03/23 11:07:30;;;;;;;22.35;11.27;;;24.50;99.90;;;;;;5052661;28;20029;-43
2024/03/23 11:09:56;;;;;;;19.98;11.90;;;24.50;99.90;;;;;;5042533;28;20063;-44
2024/03/23 11:12:40;;;;;;;26.10;12.02;;;24.60;99.90;;;;;;5052499;28;20083;-44
2024/03/23 11:15:12;;;;;;;24.10;12.07;;;24.60;99.90;;;;;;5052484;28;20040;-43
2024/03/23 11:17:38;;;;;;;22.15;11.77;;;24.60;99.90;;;;;;5052441;28;20049;-42
2024/03/23 11:20:06;;;;;;;20.27;11.68;;;24.60;99.90;;;;;;5052404;28;20048;-42
2024/03/23 11:22:38;;;;;;;;;;;24.60;99.90;;;;;;5052545;28;20079;-43
2024/03/23 11:25:25;;;;;;;25.10;10.60;;;24.60;99.90;;;;;;5052354;28;19905;-44
2024/03/23 11:27:56;;;;;;;21.35;10.77;;;24.70;99.90;;;;;;5051984;28;20033;-43
2024/03/23 11:30:28;;;;;;;22.70;10.15;;;24.70;99.90;;;;;;5052081;28;20100;-43
2024/03/23 11:33:00;;;;;;;20.27;10.55;;;24.60;99.90;;;;;;5051987;28;20020;-42
2024/03/23 11:35:34;;;;;;;20.35;11.45;;;24.70;99.90;;;;;;5051995;28;20108;-44
2024/03/23 11:38:09;;;;;;;21.70;11.15;;;24.60;99.90;;;;;;5052024;28;20067;-44
2024/03/23 11:40:37;;;;;;;24.00;9.93;;;24.60;99.90;;;;;;5034185;28;20032;-45
2024/03/23 11:43:07;;;;;;;22.65;10.35;;;24.70;99.90;;;;;;5034000;28;20021;-44
2024/03/23 11:45:53;;;;;;;21.23;10.27;;;24.70;99.90;;;;;;5033906;28;20017;-44
2024/03/23 11:48:25;;;;;;;19.58;9.80;;;24.70;99.90;;;;;;5051885;28;20021;-44
2024/03/23 11:50:57;;;;;;;18.15;10.68;;;24.70;99.90;;;;;;5051847;28;20021;-44
2024/03/23 11:53:27;;;;;;;16.30;9.57;;;24.70;99.90;;;;;;5051788;28;20021;-44
2024/03/23 11:55:58;;;;;;;24.05;10.52;;;24.70;99.90;;;;;;5051941;28;20090;-45
2024/03/23 11:58:25;;;;;;;18.48;9.68;;;24.70;99.90;;;;;;5051829;28;20044;-43
2024/03/23 12:00:53;;;;;;;17.65;9.38;;;24.70;99.90;;;;;;5051605;28;20021;-44
2024/03/23 12:03:25;;;;;;;22.52;9.35;;;24.70;99.90;;;;;;5051767;28;20029;-44
2024/03/23 12:05:53;;;;;;;21.67;9.77;;;24.70;99.90;;;;;;5051624;28;20028;-44
2024/03/23 12:08:28;;;;;;;;;;;24.70;99.90;;;;;;5034545;28;20470;-44
2024/03/23 12:11:17;;;;;;;19.15;9.57;;;24.70;99.90;;;;;;5037720;28;19983;-44
2024/03/23 12:13:46;;;;;;;19.92;8.93;;;24.70;99.90;;;;;;5037772;28;20473;-44
2024/03/23 12:16:14;;;;;;;19.17;9.30;;;24.70;99.90;;;;;;5055713;28;20104;-44
2024/03/23 12:18:41;;;;;;;17.88;9.20;;;24.70;99.90;;;;;;5055739;28;20388;-44
2024/03/23 12:21:07;;;;;;;19.70;10.25;;;24.70;99.90;;;;;;5055748;28;20020;-44
2024/03/23 12:23:33;;;;;;;17.50;9.55;;;24.70;99.90;;;;;;5055379;28;20029;-43
2024/03/23 12:25:59;;;;;;;19.40;8.85;;;24.70;99.90;;;;;;5037665;28;20067;-43
2024/03/23 12:28:25;;;;;;;15.88;8.40;;;24.70;99.90;;;;;;5055372;28;20408;-42
2024/03/23 12:30:52;;;;;;;18.88;8.98;;;24.80;99.90;;;;;;5055291;28;20040;-43
2024/03/23 12:33:19;;;;;;;17.13;8.13;;;24.70;99.90;;;;;;5055286;28;20484;-43
2024/03/23 12:35:44;;;;;;;18.15;7.88;;;24.70;99.90;;;;;;5055114;28;20079;-44
2024/03/23 12:38:10;;;;;;;16.65;8.63;;;24.70;99.90;;;;;;5055262;28;20040;-42